sensor_id;sensor_type;location;lat;lon;timestamp;temperature;humidity
64796;DHT22;51229;51.980;6.722;2022-08-01T00:00:34;17.80;99.90
64796;DHT22;51229;51.980;6.722;2022-08-01T00:03:00;17.80;99.90
64796;DHT22;51229;51.980;6.722;2022-08-01T00:05:25;17.80;99.90
64796;DHT22;51229;51.980;6.722;2022-08-01T00:07:51;17.70;99.90
64796;DHT22;51229;51.980;6.722;2022-08-01T00:10:17;17.70;99.90
64796;DHT22;51229;51.980;6.722;2022-08-01T00:12:44;17.70;99.90
64796;DHT22;51229;51.980;6.722;2022-08-01T00:15:12;17.70;99.90
64796;DHT22;51229;51.980;6.722;2022-08-01T00:17:39;17.70;99.90
64796;DHT22;51229;51.980;6.722;2022-08-01T00:20:07;17.70;99.90
64796;DHT22;51229;51.980;6.722;2022-08-01T00:22:34;17.70;99.90
64796;DHT22;51229;51.980;6.722;2022-08-01T00:25:00;17.60;99.90
64796;DHT22;51229;51.980;6.722;2022-08-01T00:27:26;17.60;99.90
64796;DHT22;51229;51.980;6.722;2022-08-01T00:29:51;17.60;99.90
64796;DHT22;51229;51.980;6.722;2022-08-01T00:32:17;17.70;99.90
64796;DHT22;51229;51.980;6.722;2022-08-01T00:34:43;17.70;99.90
64796;DHT22;51229;51.980;6.722;2022-08-01T00:37:08;17.60;99.90
64796;DHT22;51229;51.980;6.722;2022-08-01T00:39:34;17.60;99.90
64796;DHT22;51229;51.980;6.722;2022-08-01T00:42:06;17.60;99.90
64796;DHT22;51229;51.980;6.722;2022-08-01T00:44:32;17.60;99.90
64796;DHT22;51229;51.980;6.722;2022-08-01T00:46:58;17.60;99.90
64796;DHT22;51229;51.980;6.722;2022-08-01T00:49:23;17.60;99.90
64796;DHT22;51229;51.980;6.722;2022-08-01T00:51:49;17.60;99.90
64796;DHT22;51229;51.980;6.722;2022-08-01T00:54:15;17.50;99.90
64796;DHT22;51229;51.980;6.722;2022-08-01T00:56:41;17.50;99.90
64796;DHT22;51229;51.980;6.722;2022-08-01T00:59:07;17.50;99.90
64796;DHT22;51229;51.980;6.722;2022-08-01T01:01:33;17.50;99.90
64796;DHT22;51229;51.980;6.722;2022-08-01T01:04:00;17.50;99.90
64796;DHT22;51229;51.980;6.722;2022-08-01T01:07:03;17.50;99.90
64796;DHT22;51229;51.980;6.722;2022-08-01T01:09:58;17.50;99.90
64796;DHT22;51229;51.980;6.722;2022-08-01T01:15:39;17.50;99.90
64796;DHT22;51229;51.980;6.722;2022-08-01T01:18:20;17.50;99.90
64796;DHT22;51229;51.980;6.722;2022-08-01T01:20:52;17.40;99.90
64796;DHT22;51229;51.980;6.722;2022-08-01T01:23:40;17.40;99.90
64796;DHT22;51229;51.980;6.722;2022-08-01T01:26:29;17.40;99.90
64796;DHT22;51229;51.980;6.722;2022-08-01T01:32:02;17.40;99.90
64796;DHT22;51229;51.980;6.722;2022-08-01T01:34:33;17.40;99.90
64796;DHT22;51229;51.980;6.722;2022-08-01T01:37:01;17.30;99.90
64796;DHT22;51229;51.980;6.722;2022-08-01T01:39:28;17.30;99.90
64796;DHT22;51229;51.980;6.722;2022-08-01T01:41:55;17.30;99.90
64796;DHT22;51229;51.980;6.722;2022-08-01T01:44:22;17.30;99.90
64796;DHT22;51229;51.980;6.722;2022-08-01T01:46:48;17.30;99.90
64796;DHT22;51229;51.980;6.722;2022-08-01T01:49:19;17.30;99.90
64796;DHT22;51229;51.980;6.722;2022-08-01T01:51:47;17.30;99.90
64796;DHT22;51229;51.980;6.722;2022-08-01T01:54:13;17.30;99.90
64796;DHT22;51229;51.980;6.722;2022-08-01T01:56:40;17.30;99.90
64796;DHT22;51229;51.980;6.722;2022-08-01T01:59:21;17.20;99.90
64796;DHT22;51229;51.980;6.722;2022-08-01T02:01:51;17.20;99.90
64796;DHT22;51229;51.980;6.722;2022-08-01T02:04:18;17.20;99.90
64796;DHT22;51229;51.980;6.722;2022-08-01T02:06:46;17.20;99.90
64796;DHT22;51229;51.980;6.722;2022-08-01T02:09:18;17.20;99.90
64796;DHT22;51229;51.980;6.722;2022-08-01T02:11:46;17.20;99.90
64796;DHT22;51229;51.980;6.722;2022-08-01T02:14:13;17.20;99.90
64796;DHT22;51229;51.980;6.722;2022-08-01T02:16:41;17.10;99.90
64796;DHT22;51229;51.980;6.722;2022-08-01T02:19:07;17.10;99.90
64796;DHT22;51229;51.980;6.722;2022-08-01T02:21:38;17.10;99.90
64796;DHT22;51229;51.980;6.722;2022-08-01T02:26:48;17.00;99.90
64796;DHT22;51229;51.980;6.722;2022-08-01T02:29:21;17.10;99.90
64796;DHT22;51229;51.980;6.722;2022-08-01T02:31:48;17.10;99.90
64796;DHT22;51229;51.980;6.722;2022-08-01T02:34:18;17.10;99.90
64796;DHT22;51229;51.980;6.722;2022-08-01T02:36:46;17.10;99.90
64796;DHT22;51229;51.980;6.722;2022-08-01T02:39:15;17.00;99.90
64796;DHT22;51229;51.980;6.722;2022-08-01T02:41:47;17.00;99.90
64796;DHT22;51229;51.980;6.722;2022-08-01T02:44:19;16.90;99.90
64796;DHT22;51229;51.980;6.722;2022-08-01T02:47:01;17.00;99.90
64796;DHT22;51229;51.980;6.722;2022-08-01T02:49:36;17.00;99.90
64796;DHT22;51229;51.980;6.722;2022-08-01T02:52:08;17.00;99.90
64796;DHT22;51229;51.980;6.722;2022-08-01T02:54:35;16.90;99.90
64796;DHT22;51229;51.980;6.722;2022-08-01T02:57:02;17.00;99.90
64796;DHT22;51229;51.980;6.722;2022-08-01T02:59:29;17.00;99.90
64796;DHT22;51229;51.980;6.722;2022-08-01T03:01:56;17.00;99.90
64796;DHT22;51229;51.980;6.722;2022-08-01T03:04:24;16.90;99.90
64796;DHT22;51229;51.980;6.722;2022-08-01T03:06:52;16.90;99.90
64796;DHT22;51229;51.980;6.722;2022-08-01T03:09:19;16.90;99.90
64796;DHT22;51229;51.980;6.722;2022-08-01T03:11:48;16.90;99.90
64796;DHT22;51229;51.980;6.722;2022-08-01T03:14:15;16.90;99.90
64796;DHT22;51229;51.980;6.722;2022-08-01T03:16:42;16.90;99.90
64796;DHT22;51229;51.980;6.722;2022-08-01T03:19:11;16.90;99.90
64796;DHT22;51229;51.980;6.722;2022-08-01T03:21:39;16.80;99.90
64796;DHT22;51229;51.980;6.722;2022-08-01T03:24:06;16.90;99.90
64796;DHT22;51229;51.980;6.722;2022-08-01T03:26:35;16.90;99.90
64796;DHT22;51229;51.980;6.722;2022-08-01T03:29:06;16.80;99.90
64796;DHT22;51229;51.980;6.722;2022-08-01T03:31:36;16.80;99.90
64796;DHT22;51229;51.980;6.722;2022-08-01T03:34:04;16.80;99.90
64796;DHT22;51229;51.980;6.722;2022-08-01T03:36:31;16.90;99.90
64796;DHT22;51229;51.980;6.722;2022-08-01T03:39:01;16.80;99.90
64796;DHT22;51229;51.980;6.722;2022-08-01T03:41:32;16.80;99.90
64796;DHT22;51229;51.980;6.722;2022-08-01T03:44:06;16.80;99.90
64796;DHT22;51229;51.980;6.722;2022-08-01T03:46:48;16.80;99.90
64796;DHT22;51229;51.980;6.722;2022-08-01T03:49:18;16.80;99.90
64796;DHT22;51229;51.980;6.722;2022-08-01T03:51:47;16.70;99.90
64796;DHT22;51229;51.980;6.722;2022-08-01T03:54:16;16.80;99.90
64796;DHT22;51229;51.980;6.722;2022-08-01T03:56:43;16.80;99.90
64796;DHT22;51229;51.980;6.722;2022-08-01T03:59:10;16.80;99.90
64796;DHT22;51229;51.980;6.722;2022-08-01T04:01:36;16.80;99.90
64796;DHT22;51229;51.980;6.722;2022-08-01T04:04:02;16.80;99.90
64796;DHT22;51229;51.980;6.722;2022-08-01T04:06:30;16.70;99.90
64796;DHT22;51229;51.980;6.722;2022-08-01T04:08:56;16.80;99.90
64796;DHT22;51229;51.980;6.722;2022-08-01T04:11:26;16.70;99.90
64796;DHT22;51229;51.980;6.722;2022-08-01T04:13:54;16.70;99.90
64796;DHT22;51229;51.980;6.722;2022-08-01T04:16:20;16.80;99.90
64796;DHT22;51229;51.980;6.722;2022-08-01T04:18:46;16.80;99.90
64796;DHT22;51229;51.980;6.722;2022-08-01T04:21:12;16.80;99.90
64796;DHT22;51229;51.980;6.722;2022-08-01T04:23:41;16.70;99.90
64796;DHT22;51229;51.980;6.722;2022-08-01T04:26:08;16.70;99.90
64796;DHT22;51229;51.980;6.722;2022-08-01T04:28:36;16.70;99.90
64796;DHT22;51229;51.980;6.722;2022-08-01T04:31:06;16.80;99.90
64796;DHT22;51229;51.980;6.722;2022-08-01T04:33:35;16.80;99.90
64796;DHT22;51229;51.980;6.722;2022-08-01T04:36:06;16.70;99.90
64796;DHT22;51229;51.980;6.722;2022-08-01T04:38:35;16.80;99.90
64796;DHT22;51229;51.980;6.722;2022-08-01T04:41:02;16.80;99.90
64796;DHT22;51229;51.980;6.722;2022-08-01T04:43:28;16.70;99.90
64796;DHT22;51229;51.980;6.722;2022-08-01T04:45:55;16.70;99.90
64796;DHT22;51229;51.980;6.722;2022-08-01T04:48:21;16.80;99.90
64796;DHT22;51229;51.980;6.722;2022-08-01T04:50:50;16.80;99.90
64796;DHT22;51229;51.980;6.722;2022-08-01T04:53:17;16.70;99.90
64796;DHT22;51229;51.980;6.722;2022-08-01T04:55:44;16.70;99.90
64796;DHT22;51229;51.980;6.722;2022-08-01T04:58:12;16.80;99.90
64796;DHT22;51229;51.980;6.722;2022-08-01T05:00:38;16.80;99.90
64796;DHT22;51229;51.980;6.722;2022-08-01T05:03:04;16.70;99.90
64796;DHT22;51229;51.980;6.722;2022-08-01T05:05:29;16.70;99.90
64796;DHT22;51229;51.980;6.722;2022-08-01T05:07:56;16.80;99.90
64796;DHT22;51229;51.980;6.722;2022-08-01T05:10:21;16.70;99.90
64796;DHT22;51229;51.980;6.722;2022-08-01T05:12:47;16.80;99.90
64796;DHT22;51229;51.980;6.722;2022-08-01T05:15:13;16.70;99.90
64796;DHT22;51229;51.980;6.722;2022-08-01T05:17:38;16.70;99.90
64796;DHT22;51229;51.980;6.722;2022-08-01T05:20:04;16.70;99.90
64796;DHT22;51229;51.980;6.722;2022-08-01T05:22:31;16.80;99.90
64796;DHT22;51229;51.980;6.722;2022-08-01T05:24:57;16.80;99.90
64796;DHT22;51229;51.980;6.722;2022-08-01T05:27:25;16.70;99.90
64796;DHT22;51229;51.980;6.722;2022-08-01T05:29:51;16.80;99.90
64796;DHT22;51229;51.980;6.722;2022-08-01T05:32:17;16.80;99.90
64796;DHT22;51229;51.980;6.722;2022-08-01T05:34:42;16.90;99.90
64796;DHT22;51229;51.980;6.722;2022-08-01T05:37:09;16.80;99.90
64796;DHT22;51229;51.980;6.722;2022-08-01T05:39:35;16.80;99.90
64796;DHT22;51229;51.980;6.722;2022-08-01T05:42:00;16.80;99.90
64796;DHT22;51229;51.980;6.722;2022-08-01T05:44:26;16.80;99.90
64796;DHT22;51229;51.980;6.722;2022-08-01T05:46:52;16.80;99.90
64796;DHT22;51229;51.980;6.722;2022-08-01T05:49:17;16.90;99.90
64796;DHT22;51229;51.980;6.722;2022-08-01T05:51:43;16.90;99.90
64796;DHT22;51229;51.980;6.722;2022-08-01T05:54:09;16.90;99.90
64796;DHT22;51229;51.980;6.722;2022-08-01T05:56:34;16.90;99.90
64796;DHT22;51229;51.980;6.722;2022-08-01T05:59:00;16.90;99.90
64796;DHT22;51229;51.980;6.722;2022-08-01T06:01:26;16.90;99.90
64796;DHT22;51229;51.980;6.722;2022-08-01T06:03:52;16.80;99.90
64796;DHT22;51229;51.980;6.722;2022-08-01T06:06:20;17.00;99.90
64796;DHT22;51229;51.980;6.722;2022-08-01T06:08:45;16.90;99.90
64796;DHT22;51229;51.980;6.722;2022-08-01T06:11:11;16.90;99.90
64796;DHT22;51229;51.980;6.722;2022-08-01T06:13:37;16.90;99.90
64796;DHT22;51229;51.980;6.722;2022-08-01T06:16:02;16.90;99.90
64796;DHT22;51229;51.980;6.722;2022-08-01T06:18:28;17.00;99.90
64796;DHT22;51229;51.980;6.722;2022-08-01T06:20:54;17.10;99.90
64796;DHT22;51229;51.980;6.722;2022-08-01T06:23:20;17.20;99.90
64796;DHT22;51229;51.980;6.722;2022-08-01T06:25:46;17.10;99.90
64796;DHT22;51229;51.980;6.722;2022-08-01T06:28:13;17.20;99.90
64796;DHT22;51229;51.980;6.722;2022-08-01T06:30:38;17.30;99.90
64796;DHT22;51229;51.980;6.722;2022-08-01T06:33:04;17.30;99.90
64796;DHT22;51229;51.980;6.722;2022-08-01T06:35:30;17.20;99.90
64796;DHT22;51229;51.980;6.722;2022-08-01T06:37:57;17.10;99.90
64796;DHT22;51229;51.980;6.722;2022-08-01T06:40:23;17.20;99.90
64796;DHT22;51229;51.980;6.722;2022-08-01T06:42:48;17.30;99.90
64796;DHT22;51229;51.980;6.722;2022-08-01T06:45:14;17.40;99.90
64796;DHT22;51229;51.980;6.722;2022-08-01T06:47:42;17.50;99.90
64796;DHT22;51229;51.980;6.722;2022-08-01T06:50:09;17.60;99.90
64796;DHT22;51229;51.980;6.722;2022-08-01T06:52:35;17.50;99.90
64796;DHT22;51229;51.980;6.722;2022-08-01T06:55:02;17.60;99.90
64796;DHT22;51229;51.980;6.722;2022-08-01T06:57:28;17.60;99.90
64796;DHT22;51229;51.980;6.722;2022-08-01T06:59:54;17.70;99.90
64796;DHT22;51229;51.980;6.722;2022-08-01T07:02:20;17.70;99.90
64796;DHT22;51229;51.980;6.722;2022-08-01T07:04:46;17.80;99.90
64796;DHT22;51229;51.980;6.722;2022-08-01T07:07:11;17.80;99.90
64796;DHT22;51229;51.980;6.722;2022-08-01T07:09:37;17.80;99.90
64796;DHT22;51229;51.980;6.722;2022-08-01T07:12:06;17.70;99.90
64796;DHT22;51229;51.980;6.722;2022-08-01T07:14:32;17.60;99.90
64796;DHT22;51229;51.980;6.722;2022-08-01T07:16:57;17.60;99.90
64796;DHT22;51229;51.980;6.722;2022-08-01T07:19:23;17.70;99.90
64796;DHT22;51229;51.980;6.722;2022-08-01T07:21:48;17.50;99.90
64796;DHT22;51229;51.980;6.722;2022-08-01T07:24:14;17.40;99.90
64796;DHT22;51229;51.980;6.722;2022-08-01T07:26:42;17.40;99.90
64796;DHT22;51229;51.980;6.722;2022-08-01T07:29:08;17.30;99.90
64796;DHT22;51229;51.980;6.722;2022-08-01T07:31:33;17.20;99.90
64796;DHT22;51229;51.980;6.722;2022-08-01T07:33:59;17.10;99.90
64796;DHT22;51229;51.980;6.722;2022-08-01T07:36:24;17.00;99.90
64796;DHT22;51229;51.980;6.722;2022-08-01T07:38:50;16.80;99.90
64796;DHT22;51229;51.980;6.722;2022-08-01T07:41:16;16.40;99.90
64796;DHT22;51229;51.980;6.722;2022-08-01T07:43:42;16.20;99.90
64796;DHT22;51229;51.980;6.722;2022-08-01T07:46:07;16.00;99.90
64796;DHT22;51229;51.980;6.722;2022-08-01T07:48:33;15.90;99.90
64796;DHT22;51229;51.980;6.722;2022-08-01T07:50:59;16.20;99.90
64796;DHT22;51229;51.980;6.722;2022-08-01T07:53:25;16.00;99.90
64796;DHT22;51229;51.980;6.722;2022-08-01T07:55:51;16.10;99.90
64796;DHT22;51229;51.980;6.722;2022-08-01T07:58:17;16.10;99.90
64796;DHT22;51229;51.980;6.722;2022-08-01T08:00:42;16.20;99.90
64796;DHT22;51229;51.980;6.722;2022-08-01T08:03:08;16.40;99.90
64796;DHT22;51229;51.980;6.722;2022-08-01T08:05:35;16.10;99.90
64796;DHT22;51229;51.980;6.722;2022-08-01T08:08:08;16.20;99.90
64796;DHT22;51229;51.980;6.722;2022-08-01T08:10:34;16.00;99.90
64796;DHT22;51229;51.980;6.722;2022-08-01T08:13:00;16.20;99.90
64796;DHT22;51229;51.980;6.722;2022-08-01T08:15:29;16.50;99.90
64796;DHT22;51229;51.980;6.722;2022-08-01T08:17:54;16.70;99.90
64796;DHT22;51229;51.980;6.722;2022-08-01T08:20:20;16.70;99.90
64796;DHT22;51229;51.980;6.722;2022-08-01T08:22:53;16.90;99.90
64796;DHT22;51229;51.980;6.722;2022-08-01T08:25:18;16.90;99.90
64796;DHT22;51229;51.980;6.722;2022-08-01T08:27:45;16.50;99.90
64796;DHT22;51229;51.980;6.722;2022-08-01T08:30:11;16.00;99.90
64796;DHT22;51229;51.980;6.722;2022-08-01T08:32:37;15.70;99.90
64796;DHT22;51229;51.980;6.722;2022-08-01T08:35:04;15.80;99.90
64796;DHT22;51229;51.980;6.722;2022-08-01T08:37:30;15.90;99.90
64796;DHT22;51229;51.980;6.722;2022-08-01T08:39:56;15.40;99.90
64796;DHT22;51229;51.980;6.722;2022-08-01T08:42:22;15.60;99.90
64796;DHT22;51229;51.980;6.722;2022-08-01T08:44:48;15.50;99.90
64796;DHT22;51229;51.980;6.722;2022-08-01T08:47:14;15.80;99.90
64796;DHT22;51229;51.980;6.722;2022-08-01T08:49:43;16.10;99.90
64796;DHT22;51229;51.980;6.722;2022-08-01T08:52:10;16.20;99.90
64796;DHT22;51229;51.980;6.722;2022-08-01T08:54:37;16.40;99.90
64796;DHT22;51229;51.980;6.722;2022-08-01T08:57:04;16.30;99.90
64796;DHT22;51229;51.980;6.722;2022-08-01T08:59:31;16.40;99.90
64796;DHT22;51229;51.980;6.722;2022-08-01T09:01:58;16.30;99.90
64796;DHT22;51229;51.980;6.722;2022-08-01T09:04:25;16.60;99.90
64796;DHT22;51229;51.980;6.722;2022-08-01T09:06:51;16.70;99.90
64796;DHT22;51229;51.980;6.722;2022-08-01T09:09:17;16.80;99.90
64796;DHT22;51229;51.980;6.722;2022-08-01T09:11:43;16.80;99.90
64796;DHT22;51229;51.980;6.722;2022-08-01T09:14:14;16.90;99.90
64796;DHT22;51229;51.980;6.722;2022-08-01T09:16:58;16.70;99.90
64796;DHT22;51229;51.980;6.722;2022-08-01T09:19:24;16.70;99.90
64796;DHT22;51229;51.980;6.722;2022-08-01T09:22:03;16.70;99.90
64796;DHT22;51229;51.980;6.722;2022-08-01T09:24:31;16.70;99.90
64796;DHT22;51229;51.980;6.722;2022-08-01T09:26:57;16.80;99.90
64796;DHT22;51229;51.980;6.722;2022-08-01T09:29:27;16.90;99.90
64796;DHT22;51229;51.980;6.722;2022-08-01T09:31:53;16.90;99.90
64796;DHT22;51229;51.980;6.722;2022-08-01T09:34:26;17.00;99.90
64796;DHT22;51229;51.980;6.722;2022-08-01T09:36:55;17.10;99.90
64796;DHT22;51229;51.980;6.722;2022-08-01T09:39:24;17.20;99.90
64796;DHT22;51229;51.980;6.722;2022-08-01T09:41:50;17.20;99.90
64796;DHT22;51229;51.980;6.722;2022-08-01T09:44:17;17.20;99.90
64796;DHT22;51229;51.980;6.722;2022-08-01T09:46:55;17.20;99.90
64796;DHT22;51229;51.980;6.722;2022-08-01T09:49:31;17.20;99.90
64796;DHT22;51229;51.980;6.722;2022-08-01T09:51:59;17.20;99.90
64796;DHT22;51229;51.980;6.722;2022-08-01T09:54:32;17.30;99.90
64796;DHT22;51229;51.980;6.722;2022-08-01T09:57:13;17.30;99.90
64796;DHT22;51229;51.980;6.722;2022-08-01T09:59:44;17.60;99.90
64796;DHT22;51229;51.980;6.722;2022-08-01T10:02:12;17.80;99.90
64796;DHT22;51229;51.980;6.722;2022-08-01T10:04:48;17.90;99.90
64796;DHT22;51229;51.980;6.722;2022-08-01T10:07:14;18.20;99.90
64796;DHT22;51229;51.980;6.722;2022-08-01T10:09:44;18.60;99.90
64796;DHT22;51229;51.980;6.722;2022-08-01T10:12:12;18.60;99.90
64796;DHT22;51229;51.980;6.722;2022-08-01T10:14:38;18.60;99.90
64796;DHT22;51229;51.980;6.722;2022-08-01T10:17:09;18.70;99.90
64796;DHT22;51229;51.980;6.722;2022-08-01T10:19:39;18.70;99.90
64796;DHT22;51229;51.980;6.722;2022-08-01T10:22:09;18.50;99.90
64796;DHT22;51229;51.980;6.722;2022-08-01T10:24:38;18.20;99.90
64796;DHT22;51229;51.980;6.722;2022-08-01T10:27:08;18.00;99.90
64796;DHT22;51229;51.980;6.722;2022-08-01T10:32:09;17.90;99.90
64796;DHT22;51229;51.980;6.722;2022-08-01T10:34:35;18.10;99.90
64796;DHT22;51229;51.980;6.722;2022-08-01T10:37:01;18.40;99.90
64796;DHT22;51229;51.980;6.722;2022-08-01T10:39:28;18.30;99.90
64796;DHT22;51229;51.980;6.722;2022-08-01T10:41:56;19.30;99.90
64796;DHT22;51229;51.980;6.722;2022-08-01T10:44:23;19.40;99.90
64796;DHT22;51229;51.980;6.722;2022-08-01T10:46:54;19.20;99.90
64796;DHT22;51229;51.980;6.722;2022-08-01T10:49:22;18.90;99.90
64796;DHT22;51229;51.980;6.722;2022-08-01T10:51:51;19.20;99.90
64796;DHT22;51229;51.980;6.722;2022-08-01T10:54:17;19.10;99.90
64796;DHT22;51229;51.980;6.722;2022-08-01T10:59:09;18.70;99.90
64796;DHT22;51229;51.980;6.722;2022-08-01T11:01:39;18.60;99.90
64796;DHT22;51229;51.980;6.722;2022-08-01T11:04:09;18.80;99.90
64796;DHT22;51229;51.980;6.722;2022-08-01T11:06:42;19.10;99.90
64796;DHT22;51229;51.980;6.722;2022-08-01T11:11:58;19.20;99.90
64796;DHT22;51229;51.980;6.722;2022-08-01T11:14:24;19.30;99.90
64796;DHT22;51229;51.980;6.722;2022-08-01T11:16:50;19.30;99.90
64796;DHT22;51229;51.980;6.722;2022-08-01T11:19:16;19.10;99.90
64796;DHT22;51229;51.980;6.722;2022-08-01T11:27:29;19.30;99.90
64796;DHT22;51229;51.980;6.722;2022-08-01T11:32:47;18.60;99.90
64796;DHT22;51229;51.980;6.722;2022-08-01T11:35:13;18.70;99.90
64796;DHT22;51229;51.980;6.722;2022-08-01T11:37:39;19.00;99.90
64796;DHT22;51229;51.980;6.722;2022-08-01T11:43:15;18.90;99.90
64796;DHT22;51229;51.980;6.722;2022-08-01T11:45:54;19.10;99.90
64796;DHT22;51229;51.980;6.722;2022-08-01T11:48:25;19.30;99.90
64796;DHT22;51229;51.980;6.722;2022-08-01T11:50:52;19.40;99.90
64796;DHT22;51229;51.980;6.722;2022-08-01T11:53:19;19.40;99.90
64796;DHT22;51229;51.980;6.722;2022-08-01T11:55:50;19.40;99.90
64796;DHT22;51229;51.980;6.722;2022-08-01T11:58:29;19.50;99.90
64796;DHT22;51229;51.980;6.722;2022-08-01T12:00:56;19.50;99.90
64796;DHT22;51229;51.980;6.722;2022-08-01T12:03:30;19.60;99.90
64796;DHT22;51229;51.980;6.722;2022-08-01T12:05:57;19.60;99.90
64796;DHT22;51229;51.980;6.722;2022-08-01T12:08:28;19.70;99.90
64796;DHT22;51229;51.980;6.722;2022-08-01T12:10:54;19.60;99.90
64796;DHT22;51229;51.980;6.722;2022-08-01T12:13:20;19.60;99.90
64796;DHT22;51229;51.980;6.722;2022-08-01T12:15:47;19.60;99.90
64796;DHT22;51229;51.980;6.722;2022-08-01T12:18:13;19.60;99.90
64796;DHT22;51229;51.980;6.722;2022-08-01T12:20:41;19.60;99.90
64796;DHT22;51229;51.980;6.722;2022-08-01T12:23:13;19.70;99.90
64796;DHT22;51229;51.980;6.722;2022-08-01T12:25:40;19.80;99.90
64796;DHT22;51229;51.980;6.722;2022-08-01T12:28:10;19.90;99.90
64796;DHT22;51229;51.980;6.722;2022-08-01T12:30:39;20.00;99.90
64796;DHT22;51229;51.980;6.722;2022-08-01T12:33:07;20.10;99.90
64796;DHT22;51229;51.980;6.722;2022-08-01T12:35:34;20.20;99.90
64796;DHT22;51229;51.980;6.722;2022-08-01T12:38:22;20.20;99.90
64796;DHT22;51229;51.980;6.722;2022-08-01T12:40:48;20.70;99.30
64796;DHT22;51229;51.980;6.722;2022-08-01T12:43:19;21.80;98.40
64796;DHT22;51229;51.980;6.722;2022-08-01T12:45:47;21.60;96.90
64796;DHT22;51229;51.980;6.722;2022-08-01T12:48:15;21.40;97.00
64796;DHT22;51229;51.980;6.722;2022-08-01T12:50:45;21.00;97.50
64796;DHT22;51229;51.980;6.722;2022-08-01T12:53:12;20.50;98.50
64796;DHT22;51229;51.980;6.722;2022-08-01T12:55:54;20.40;98.80
64796;DHT22;51229;51.980;6.722;2022-08-01T12:58:21;20.30;99.00
64796;DHT22;51229;51.980;6.722;2022-08-01T13:00:49;20.30;99.10
64796;DHT22;51229;51.980;6.722;2022-08-01T13:03:19;20.40;98.90
64796;DHT22;51229;51.980;6.722;2022-08-01T13:08:19;20.60;98.40
64796;DHT22;51229;51.980;6.722;2022-08-01T13:10:45;20.70;98.30
64796;DHT22;51229;51.980;6.722;2022-08-01T13:13:13;20.60;98.60
64796;DHT22;51229;51.980;6.722;2022-08-01T13:15:41;20.70;99.00
64796;DHT22;51229;51.980;6.722;2022-08-01T13:18:28;20.50;99.00
64796;DHT22;51229;51.980;6.722;2022-08-01T13:21:12;20.50;99.20
64796;DHT22;51229;51.980;6.722;2022-08-01T13:23:40;20.40;99.30
64796;DHT22;51229;51.980;6.722;2022-08-01T13:26:06;20.40;99.40
64796;DHT22;51229;51.980;6.722;2022-08-01T13:28:32;20.40;99.30
64796;DHT22;51229;51.980;6.722;2022-08-01T13:31:04;20.50;99.10
64796;DHT22;51229;51.980;6.722;2022-08-01T13:33:45;20.70;98.70
64796;DHT22;51229;51.980;6.722;2022-08-01T13:36:11;20.90;98.20
64796;DHT22;51229;51.980;6.722;2022-08-01T13:38:38;21.30;97.50
64796;DHT22;51229;51.980;6.722;2022-08-01T13:41:22;21.30;97.20
64796;DHT22;51229;51.980;6.722;2022-08-01T13:43:48;21.30;97.20
64796;DHT22;51229;51.980;6.722;2022-08-01T13:46:13;21.60;96.80
64796;DHT22;51229;51.980;6.722;2022-08-01T13:48:39;21.60;96.50
64796;DHT22;51229;51.980;6.722;2022-08-01T13:51:05;21.60;96.50
64796;DHT22;51229;51.980;6.722;2022-08-01T13:53:30;22.10;95.70
64796;DHT22;51229;51.980;6.722;2022-08-01T13:55:56;21.80;95.80
64796;DHT22;51229;51.980;6.722;2022-08-01T13:58:22;21.90;95.90
64796;DHT22;51229;51.980;6.722;2022-08-01T14:00:48;22.20;95.40
64796;DHT22;51229;51.980;6.722;2022-08-01T14:03:14;22.00;95.40
64796;DHT22;51229;51.980;6.722;2022-08-01T14:05:42;21.80;95.70
64796;DHT22;51229;51.980;6.722;2022-08-01T14:08:08;21.90;95.60
64796;DHT22;51229;51.980;6.722;2022-08-01T14:10:34;22.10;95.20
64796;DHT22;51229;51.980;6.722;2022-08-01T14:13:00;21.90;95.60
64796;DHT22;51229;51.980;6.722;2022-08-01T14:15:26;21.60;96.00
64796;DHT22;51229;51.980;6.722;2022-08-01T14:17:52;21.60;96.10
64796;DHT22;51229;51.980;6.722;2022-08-01T14:20:17;21.50;96.00
64796;DHT22;51229;51.980;6.722;2022-08-01T14:22:46;21.70;94.90
64796;DHT22;51229;51.980;6.722;2022-08-01T14:25:12;21.50;96.30
64796;DHT22;51229;51.980;6.722;2022-08-01T14:27:38;21.50;96.60
64796;DHT22;51229;51.980;6.722;2022-08-01T14:30:05;21.40;96.30
64796;DHT22;51229;51.980;6.722;2022-08-01T14:32:32;21.40;96.10
64796;DHT22;51229;51.980;6.722;2022-08-01T14:34:59;21.60;96.10
64796;DHT22;51229;51.980;6.722;2022-08-01T14:37:25;22.20;95.20
64796;DHT22;51229;51.980;6.722;2022-08-01T14:39:50;22.30;94.70
64796;DHT22;51229;51.980;6.722;2022-08-01T14:42:16;22.60;94.30
64796;DHT22;51229;51.980;6.722;2022-08-01T14:44:42;22.40;94.40
64796;DHT22;51229;51.980;6.722;2022-08-01T14:47:07;22.20;94.70
64796;DHT22;51229;51.980;6.722;2022-08-01T14:49:33;21.90;95.10
64796;DHT22;51229;51.980;6.722;2022-08-01T14:51:59;21.80;95.30
64796;DHT22;51229;51.980;6.722;2022-08-01T14:54:24;21.60;95.30
64796;DHT22;51229;51.980;6.722;2022-08-01T14:56:50;21.50;95.70
64796;DHT22;51229;51.980;6.722;2022-08-01T14:59:18;21.40;95.80
64796;DHT22;51229;51.980;6.722;2022-08-01T15:01:44;21.50;96.00
64796;DHT22;51229;51.980;6.722;2022-08-01T15:04:09;21.50;95.90
64796;DHT22;51229;51.980;6.722;2022-08-01T15:06:35;21.50;95.70
64796;DHT22;51229;51.980;6.722;2022-08-01T15:09:01;21.50;95.90
64796;DHT22;51229;51.980;6.722;2022-08-01T15:11:27;21.60;95.90
64796;DHT22;51229;51.980;6.722;2022-08-01T15:13:52;21.40;96.00
64796;DHT22;51229;51.980;6.722;2022-08-01T15:16:37;21.40;95.90
64796;DHT22;51229;51.980;6.722;2022-08-01T15:19:03;21.30;95.90
64796;DHT22;51229;51.980;6.722;2022-08-01T15:21:28;21.40;95.10
64796;DHT22;51229;51.980;6.722;2022-08-01T15:23:54;21.60;95.20
64796;DHT22;51229;51.980;6.722;2022-08-01T15:26:20;21.70;95.00
64796;DHT22;51229;51.980;6.722;2022-08-01T15:28:45;21.60;91.50
64796;DHT22;51229;51.980;6.722;2022-08-01T15:31:11;21.30;95.50
64796;DHT22;51229;51.980;6.722;2022-08-01T15:33:38;21.50;95.30
64796;DHT22;51229;51.980;6.722;2022-08-01T15:36:04;21.40;95.50
64796;DHT22;51229;51.980;6.722;2022-08-01T15:38:29;21.40;95.70
64796;DHT22;51229;51.980;6.722;2022-08-01T15:40:55;21.40;95.40
64796;DHT22;51229;51.980;6.722;2022-08-01T15:43:21;21.50;95.40
64796;DHT22;51229;51.980;6.722;2022-08-01T15:45:46;21.30;95.20
64796;DHT22;51229;51.980;6.722;2022-08-01T15:48:12;21.40;95.40
64796;DHT22;51229;51.980;6.722;2022-08-01T15:50:38;21.50;95.30
64796;DHT22;51229;51.980;6.722;2022-08-01T15:53:04;21.50;91.20
64796;DHT22;51229;51.980;6.722;2022-08-01T15:55:30;20.90;95.70
64796;DHT22;51229;51.980;6.722;2022-08-01T15:57:55;21.10;95.50
64796;DHT22;51229;51.980;6.722;2022-08-01T16:00:21;21.30;94.80
64796;DHT22;51229;51.980;6.722;2022-08-01T16:02:47;21.40;95.20
64796;DHT22;51229;51.980;6.722;2022-08-01T16:05:12;21.50;94.40